createdAt,value
2019-02-14T00:02:09.118Z,21.77
2019-02-14T00:04:37.527Z,19.57
2019-02-14T00:07:05.947Z,16.40
2019-02-14T00:09:34.363Z,16.20
2019-02-14T00:12:02.766Z,17.43
2019-02-14T00:14:31.186Z,16.60
2019-02-14T00:16:59.646Z,12.87
2019-02-14T00:19:28.072Z,17.50
2019-02-14T00:21:56.483Z,14.47
2019-02-14T00:24:24.888Z,16.10
2019-02-14T00:26:53.291Z,15.57
2019-02-14T00:29:21.701Z,15.33
2019-02-14T00:31:50.167Z,15.60
2019-02-14T00:34:18.578Z,13.17
2019-02-14T00:36:46.980Z,13.33
2019-02-14T00:39:15.374Z,13.73
2019-02-14T00:41:43.802Z,16.90
2019-02-14T00:44:12.212Z,14.43
2019-02-14T00:46:40.866Z,12.30
2019-02-14T00:49:09.257Z,16.87
2019-02-14T00:51:37.659Z,14.87
2019-02-14T00:54:06.078Z,16.83
2019-02-14T00:56:34.474Z,18.97
2019-02-14T00:59:02.866Z,14.60
2019-02-14T01:01:31.274Z,17.93
2019-02-14T01:03:59.686Z,17.23
2019-02-14T01:06:28.201Z,16.33
2019-02-14T01:08:56.624Z,17.10
2019-02-14T01:11:25.034Z,16.50
2019-02-14T01:13:53.438Z,17.27
2019-02-14T01:16:21.839Z,18.70
2019-02-14T01:18:50.286Z,18.23
2019-02-14T01:21:18.680Z,21.70
2019-02-14T01:23:47.078Z,14.27
2019-02-14T01:26:15.490Z,12.70
2019-02-14T01:28:43.886Z,14.30
2019-02-14T01:31:12.375Z,14.53
2019-02-14T01:33:40.802Z,14.07
2019-02-14T01:36:09.201Z,22.47
2019-02-14T01:38:37.593Z,15.07
2019-02-14T01:41:06.019Z,13.27
2019-02-14T01:43:34.477Z,13.17
2019-02-14T01:46:02.873Z,12.27
2019-02-14T01:48:31.302Z,14.07
2019-02-14T01:50:59.699Z,14.37
2019-02-14T01:53:28.106Z,18.17
2019-02-14T01:55:56.603Z,12.53
2019-02-14T01:58:25.021Z,11.97
2019-02-14T02:00:53.458Z,17.40
2019-02-14T02:03:21.870Z,10.87
2019-02-14T02:05:51.008Z,14.10
2019-02-14T02:08:19.918Z,13.37
2019-02-14T02:10:48.311Z,16.03
2019-02-14T02:13:16.716Z,15.43
2019-02-14T02:15:45.391Z,16.77
2019-02-14T02:18:13.810Z,15.07
2019-02-14T02:20:42.203Z,16.57
2019-02-14T02:23:10.599Z,17.60
2019-02-14T02:25:39.011Z,18.00
2019-02-14T02:28:07.743Z,11.80
2019-02-14T02:30:36.136Z,11.30
2019-02-14T02:33:04.534Z,18.07
2019-02-14T02:35:32.960Z,15.57
2019-02-14T02:38:01.363Z,15.90
2019-02-14T02:40:29.763Z,14.47
2019-02-14T02:42:58.159Z,16.87
2019-02-14T02:45:26.572Z,16.30
2019-02-14T02:47:54.975Z,14.00
2019-02-14T02:50:23.383Z,16.00
2019-02-14T02:52:51.782Z,21.97
2019-02-14T02:55:20.182Z,19.17
2019-02-14T02:57:48.595Z,13.10
2019-02-14T03:00:19.847Z,14.53
2019-02-14T03:02:48.238Z,17.43
2019-02-14T03:05:16.655Z,16.50
2019-02-14T03:07:45.048Z,15.90
2019-02-14T03:10:14.016Z,18.87
2019-02-14T03:12:42.503Z,14.37
2019-02-14T03:15:14.024Z,18.27
2019-02-14T03:17:42.431Z,18.63
2019-02-14T03:20:12.283Z,17.20
2019-02-14T03:22:40.977Z,18.13
2019-02-14T03:25:14.766Z,22.00
2019-02-14T03:27:43.171Z,16.40
2019-02-14T03:30:16.030Z,18.17
2019-02-14T03:32:44.443Z,14.20
2019-02-14T03:35:12.926Z,18.87
2019-02-14T03:37:41.393Z,14.40
2019-02-14T03:40:11.786Z,15.50
2019-02-14T03:42:40.173Z,17.37
2019-02-14T03:45:16.689Z,17.80
2019-02-14T03:47:45.089Z,14.67
2019-02-14T03:50:14.227Z,16.43
2019-02-14T03:52:42.713Z,15.13
2019-02-14T03:55:11.374Z,14.77
2019-02-14T03:57:40.038Z,14.50
2019-02-14T04:00:14.303Z,13.20
2019-02-14T04:02:42.693Z,15.73
2019-02-14T04:05:11.182Z,17.07
2019-02-14T04:07:40.038Z,15.77
2019-02-14T04:10:13.460Z,15.80
2019-02-14T04:12:41.926Z,13.60
2019-02-14T04:15:12.759Z,12.70
2019-02-14T04:17:41.160Z,11.97
2019-02-14T04:20:10.604Z,13.33
2019-02-14T04:22:39.023Z,13.27
2019-02-14T04:25:09.157Z,15.67
2019-02-14T04:27:37.546Z,12.63
2019-02-14T04:30:09.403Z,11.83
2019-02-14T04:32:37.810Z,12.40
2019-02-14T04:35:06.466Z,12.60
2019-02-14T04:37:34.902Z,16.03
2019-02-14T04:40:04.239Z,15.23
2019-02-14T04:42:32.630Z,23.83
2019-02-14T04:45:01.030Z,14.77
2019-02-14T04:47:29.502Z,15.60
2019-02-14T04:49:57.917Z,16.47
2019-02-14T04:52:26.317Z,13.87
2019-02-14T04:54:57.640Z,14.30
2019-02-14T04:57:26.070Z,14.80
2019-02-14T04:59:54.470Z,12.97
2019-02-14T05:02:22.866Z,15.23
2019-02-14T05:04:51.302Z,13.93
2019-02-14T05:07:19.698Z,17.47
2019-02-14T05:09:48.174Z,15.60
2019-02-14T05:12:16.661Z,16.47
2019-02-14T05:14:45.063Z,18.87
2019-02-14T05:17:13.466Z,17.43
2019-02-14T05:19:41.885Z,12.57
2019-02-14T05:22:10.278Z,14.57
2019-02-14T05:24:38.683Z,28.97
2019-02-14T05:27:07.106Z,17.40
2019-02-14T05:29:35.803Z,12.30
2019-02-14T05:32:04.202Z,17.27
2019-02-14T05:34:32.601Z,16.60
2019-02-14T05:37:01.022Z,18.97
2019-02-14T05:39:29.421Z,13.80
2019-02-14T05:41:57.839Z,17.10
2019-02-14T05:44:26.236Z,15.10
2019-02-14T05:46:54.747Z,16.50
2019-02-14T05:49:23.144Z,16.47
2019-02-14T05:51:51.554Z,14.30
2019-02-14T05:54:19.946Z,16.50
2019-02-14T05:56:48.366Z,13.97
2019-02-14T05:59:16.788Z,15.73
2019-02-14T06:01:45.178Z,18.47
2019-02-14T06:04:13.589Z,14.57
2019-02-14T06:06:42.187Z,19.67
2019-02-14T06:09:10.586Z,16.90
2019-02-14T06:11:38.977Z,14.87
2019-02-14T06:14:07.401Z,15.57
2019-02-14T06:16:36.150Z,15.77
2019-02-14T06:19:04.619Z,16.10
2019-02-14T06:21:33.026Z,18.73
2019-02-14T06:24:01.658Z,16.43
2019-02-14T06:26:30.066Z,15.07
2019-02-14T06:28:58.537Z,20.07
2019-02-14T06:31:26.958Z,19.47
2019-02-14T06:33:55.412Z,20.77
2019-02-14T06:36:23.806Z,18.87
2019-02-14T06:38:52.246Z,20.50
2019-02-14T06:41:20.654Z,20.13
2019-02-14T06:43:49.055Z,23.37
2019-02-14T06:46:17.470Z,19.23
2019-02-14T06:48:45.895Z,18.53
2019-02-14T06:51:14.307Z,17.97
2019-02-14T06:53:42.723Z,18.97
2019-02-14T06:56:11.127Z,17.27
2019-02-14T06:58:39.540Z,17.93
2019-02-14T07:01:07.966Z,21.67
2019-02-14T07:03:36.462Z,19.30
2019-02-14T07:06:04.874Z,16.33
2019-02-14T07:08:33.290Z,17.83
2019-02-14T07:11:01.787Z,18.97
2019-02-14T07:13:31.126Z,19.40
2019-02-14T07:15:59.562Z,20.97
2019-02-14T07:18:27.964Z,18.23
2019-02-14T07:20:56.362Z,18.43
2019-02-14T07:23:24.782Z,21.00
2019-02-14T07:25:53.216Z,18.43
2019-02-14T07:28:21.616Z,19.20
2019-02-14T07:30:50.035Z,21.07
2019-02-14T07:33:18.526Z,19.00
2019-02-14T07:35:47.414Z,18.73
2019-02-14T07:38:15.811Z,20.20
2019-02-14T07:40:44.222Z,18.20
2019-02-14T07:43:12.623Z,17.57
2019-02-14T07:45:41.355Z,18.47
2019-02-14T07:48:09.831Z,22.50
2019-02-14T07:50:38.318Z,19.10
2019-02-14T07:53:06.710Z,22.53
2019-02-14T07:55:35.123Z,18.67
2019-02-14T07:58:03.539Z,19.77
2019-02-14T08:00:32.219Z,21.57
2019-02-14T08:03:00.819Z,19.47
2019-02-14T08:05:29.214Z,22.73
2019-02-14T08:07:57.944Z,18.73
2019-02-14T08:10:26.350Z,23.23
2019-02-14T08:12:54.757Z,26.30
2019-02-14T08:15:23.190Z,25.30
2019-02-14T08:17:51.597Z,25.23
2019-02-14T08:20:21.430Z,23.17
2019-02-14T08:22:49.849Z,21.17
2019-02-14T08:25:18.242Z,15.23
2019-02-14T08:27:46.651Z,15.97
2019-02-14T08:30:16.885Z,17.37
2019-02-14T08:32:45.282Z,12.53
2019-02-14T08:35:13.766Z,15.70
2019-02-14T08:37:45.453Z,13.67
2019-02-14T08:40:21.522Z,15.67
2019-02-14T08:42:49.920Z,12.23
2019-02-14T08:45:18.301Z,15.80
2019-02-14T08:47:46.717Z,13.53
2019-02-14T08:50:15.113Z,14.27
2019-02-14T08:52:43.539Z,15.10
2019-02-14T08:55:11.943Z,11.17
2019-02-14T08:57:40.349Z,14.97
2019-02-14T09:00:13.901Z,11.17
2019-02-14T09:02:42.313Z,14.73
2019-02-14T09:05:10.698Z,11.77
2019-02-14T09:07:39.370Z,10.73
2019-02-14T09:10:10.670Z,13.30
2019-02-14T09:12:39.076Z,12.37
2019-02-14T09:15:10.486Z,11.67
2019-02-14T09:17:38.883Z,14.63
2019-02-14T09:20:18.656Z,14.67
2019-02-14T09:22:47.047Z,12.53
2019-02-14T09:25:15.497Z,12.57
2019-02-14T09:27:43.906Z,13.30
2019-02-14T09:30:14.617Z,13.10
2019-02-14T09:32:43.186Z,15.50
2019-02-14T09:35:11.662Z,22.53
2019-02-14T09:37:40.069Z,19.40
2019-02-14T09:40:13.567Z,14.90
2019-02-14T09:42:42.139Z,13.57
2019-02-14T09:45:12.494Z,16.10
2019-02-14T09:47:40.917Z,11.50
2019-02-14T09:50:11.821Z,11.23
2019-02-14T09:52:41.755Z,10.33
2019-02-14T09:55:12.096Z,13.53
2019-02-14T09:57:40.486Z,11.27
2019-02-14T10:00:14.692Z,11.60
2019-02-14T10:02:43.084Z,16.83
2019-02-14T10:05:11.554Z,11.43
2019-02-14T10:07:39.949Z,12.47
2019-02-14T10:10:14.350Z,11.53
2019-02-14T10:12:42.795Z,12.40
2019-02-14T10:15:11.929Z,13.27
2019-02-14T10:17:40.620Z,14.47
2019-02-14T10:20:18.506Z,15.13
2019-02-14T10:22:47.134Z,11.57
2019-02-14T10:25:15.543Z,13.83
2019-02-14T10:27:43.945Z,16.70
2019-02-14T10:30:15.167Z,10.87
2019-02-14T10:32:43.562Z,14.10
2019-02-14T10:35:11.966Z,13.57
2019-02-14T10:37:40.373Z,16.03
2019-02-14T10:40:14.086Z,14.13
2019-02-14T10:42:42.494Z,10.20
2019-02-14T10:45:13.348Z,13.37
2019-02-14T10:47:41.758Z,12.60
2019-02-14T10:50:11.174Z,10.00
2019-02-14T10:52:39.861Z,11.67
2019-02-14T10:55:13.213Z,12.30
2019-02-14T10:57:41.590Z,12.20
2019-02-14T11:00:20.773Z,13.63
2019-02-14T11:02:49.453Z,11.03
2019-02-14T11:05:18.678Z,11.97
2019-02-14T11:07:47.072Z,11.67
2019-02-14T11:10:16.119Z,12.27
2019-02-14T11:12:44.587Z,8.97
2019-02-14T11:15:15.499Z,8.97
2019-02-14T11:17:43.906Z,9.97
2019-02-14T11:20:14.133Z,9.43
2019-02-14T11:22:42.619Z,12.03
2019-02-14T11:25:19.809Z,8.97
2019-02-14T11:27:48.229Z,9.53
2019-02-14T11:30:16.619Z,8.37
2019-02-14T11:32:45.010Z,8.37
2019-02-14T11:35:13.591Z,9.53
2019-02-14T11:37:42.001Z,8.00
2019-02-14T11:40:12.050Z,12.67
2019-02-14T11:42:40.452Z,6.13
2019-02-14T11:45:11.903Z,7.20
2019-02-14T11:47:40.315Z,7.43
2019-02-14T11:50:10.846Z,6.57
2019-02-14T11:52:39.494Z,5.73
2019-02-14T11:55:09.950Z,6.40
2019-02-14T11:57:38.341Z,5.37
2019-02-14T12:00:17.183Z,5.77
2019-02-14T12:02:54.723Z,6.80
2019-02-14T12:05:15.706Z,7.33
2019-02-14T12:07:44.335Z,6.20
2019-02-14T12:10:13.772Z,6.57
2019-02-14T12:12:42.422Z,5.73
2019-02-14T12:15:12.359Z,7.90
2019-02-14T12:17:40.743Z,5.67
2019-02-14T12:20:12.535Z,5.93
2019-02-14T12:22:46.826Z,6.87
2019-02-14T12:25:16.486Z,6.13
2019-02-14T12:27:44.911Z,5.47
2019-02-14T12:30:14.936Z,5.63
2019-02-14T12:32:43.323Z,7.00
2019-02-14T12:35:11.730Z,7.10
2019-02-14T12:37:40.134Z,9.67
2019-02-14T12:40:13.369Z,7.93
2019-02-14T12:42:42.016Z,7.13
2019-02-14T12:45:20.312Z,7.00
2019-02-14T12:47:43.466Z,8.60
2019-02-14T12:50:11.895Z,6.40
2019-02-14T12:52:40.284Z,8.17
2019-02-14T12:55:08.839Z,6.17
2019-02-14T12:57:37.242Z,6.40
2019-02-14T13:00:08.711Z,7.37
2019-02-14T13:02:37.113Z,6.97
2019-02-14T13:05:07.561Z,7.87
2019-02-14T13:07:35.970Z,7.57
2019-02-14T13:10:09.850Z,6.97
2019-02-14T13:12:38.252Z,6.03
2019-02-14T13:15:12.506Z,7.20
2019-02-14T13:17:40.918Z,5.63
2019-02-14T13:20:09.579Z,8.50
2019-02-14T13:22:37.975Z,7.70
2019-02-14T13:25:09.166Z,8.97
2019-02-14T13:27:37.570Z,5.97
2019-02-14T13:30:11.974Z,4.87
2019-02-14T13:32:40.450Z,7.60
2019-02-14T13:35:08.851Z,5.23
2019-02-14T13:37:37.262Z,5.10
2019-02-14T13:40:06.743Z,6.80
2019-02-14T13:42:35.240Z,6.73
2019-02-14T13:45:04.171Z,7.87
2019-02-14T13:47:32.567Z,4.80
2019-02-14T13:50:01.022Z,4.83
2019-02-14T13:52:29.427Z,4.73
2019-02-14T13:54:57.841Z,4.83
2019-02-14T13:57:26.238Z,5.47
2019-02-14T13:59:54.859Z,5.13
2019-02-14T14:02:23.258Z,4.90
2019-02-14T14:04:51.650Z,5.90
2019-02-14T14:07:20.071Z,6.43
2019-02-14T14:09:48.470Z,5.93
2019-02-14T14:12:16.890Z,5.03
2019-02-14T14:14:45.333Z,6.17
2019-02-14T14:17:13.709Z,6.97
2019-02-14T14:19:42.120Z,4.50
2019-02-14T14:22:10.511Z,4.40
2019-02-14T14:24:38.898Z,4.03
2019-02-14T14:27:07.330Z,9.13
2019-02-14T14:29:35.722Z,6.43
2019-02-14T14:32:04.116Z,7.57
2019-02-14T14:34:32.530Z,7.17
2019-02-14T14:37:00.958Z,8.57
2019-02-14T14:39:29.350Z,9.77
2019-02-14T14:41:57.738Z,7.57
2019-02-14T14:44:30.789Z,9.83
2019-02-14T14:46:59.280Z,6.73
2019-02-14T14:49:27.952Z,8.93
2019-02-14T14:51:56.347Z,8.63
2019-02-14T14:54:24.758Z,9.13
2019-02-14T14:56:53.150Z,8.80
2019-02-14T14:59:21.550Z,7.03
2019-02-14T15:01:49.944Z,8.13
2019-02-14T15:04:18.350Z,8.30
2019-02-14T15:06:46.734Z,7.33
2019-02-14T15:09:15.141Z,11.30
2019-02-14T15:11:43.537Z,7.17
2019-02-14T15:14:11.934Z,7.47
2019-02-14T15:16:40.363Z,9.07
2019-02-14T15:19:08.762Z,11.40
2019-02-14T15:21:37.164Z,10.07
2019-02-14T15:24:05.890Z,6.80
2019-02-14T15:26:34.280Z,9.77
2019-02-14T15:29:02.670Z,7.53
2019-02-14T15:31:31.076Z,12.47
2019-02-14T15:33:59.474Z,16.30
2019-02-14T15:36:28.330Z,14.07
2019-02-14T15:38:56.763Z,13.10
2019-02-14T15:41:25.162Z,11.17
2019-02-14T15:43:53.564Z,15.10
2019-02-14T15:46:22.017Z,13.10
2019-02-14T15:48:50.410Z,19.17
2019-02-14T15:51:20.028Z,16.43
2019-02-14T15:53:48.566Z,14.53
2019-02-14T15:56:16.954Z,16.50
2019-02-14T15:59:04.699Z,12.47
2019-02-14T16:01:33.994Z,12.50
2019-02-14T16:04:02.531Z,16.93
2019-02-14T16:06:31.398Z,12.67
2019-02-14T16:08:59.816Z,13.80
2019-02-14T16:11:28.197Z,12.03
2019-02-14T16:13:57.140Z,13.50
2019-02-14T16:16:25.691Z,11.77
2019-02-14T16:18:54.079Z,14.10
2019-02-14T16:21:22.727Z,14.21
2019-02-14T16:23:52.944Z,21.73
2019-02-14T16:26:21.253Z,19.57
2019-02-14T16:28:49.671Z,22.07
2019-02-14T16:31:18.072Z,23.77
2019-02-14T16:33:46.473Z,22.87
2019-02-14T16:36:14.895Z,23.80
2019-02-14T16:38:43.297Z,25.53
2019-02-14T16:41:11.690Z,24.80
2019-02-14T16:43:40.108Z,22.87
2019-02-14T16:46:08.500Z,24.67
2019-02-14T16:48:36.910Z,20.47
2019-02-14T16:51:05.320Z,19.87
2019-02-14T16:53:33.710Z,15.50
2019-02-14T16:56:02.478Z,17.10
2019-02-14T16:58:30.855Z,17.43
2019-02-14T17:00:59.254Z,25.37
2019-02-14T17:03:27.677Z,20.30
2019-02-14T17:05:56.074Z,19.10
2019-02-14T17:08:24.466Z,21.20
2019-02-14T17:10:52.870Z,18.20
2019-02-14T17:13:21.259Z,24.63
2019-02-14T17:15:49.671Z,23.13
2019-02-14T17:18:18.071Z,19.13
2019-02-14T17:20:46.497Z,20.87
2019-02-14T17:23:15.205Z,23.10
2019-02-14T17:25:43.594Z,17.87
2019-02-14T17:28:11.991Z,23.57
2019-02-14T17:30:40.419Z,20.90
2019-02-14T17:33:08.823Z,21.87
2019-02-14T17:35:37.218Z,19.10
2019-02-14T17:38:05.643Z,20.87
2019-02-14T17:40:34.042Z,19.37
2019-02-14T17:43:02.426Z,19.73
2019-02-14T17:45:30.841Z,18.97
2019-02-14T17:47:59.249Z,22.33
2019-02-14T17:50:27.638Z,23.00
2019-02-14T17:52:56.057Z,31.00
2019-02-14T17:55:24.449Z,23.77
2019-02-14T17:57:52.851Z,22.80
2019-02-14T18:00:21.258Z,20.63
2019-02-14T18:02:49.647Z,23.57
2019-02-14T18:05:18.057Z,21.97
2019-02-14T18:07:46.735Z,25.00
2019-02-14T18:10:15.127Z,24.63
2019-02-14T18:12:43.520Z,26.37
2019-02-14T18:15:15.094Z,24.50
2019-02-14T18:17:43.502Z,26.93
2019-02-14T18:20:12.039Z,31.10
2019-02-14T18:22:40.471Z,35.97
2019-02-14T18:25:10.870Z,30.40
2019-02-14T18:27:39.674Z,29.77
2019-02-14T18:30:10.330Z,27.93
2019-02-14T18:32:38.742Z,34.43
2019-02-14T18:35:11.243Z,31.33
2019-02-14T18:37:39.634Z,28.30
2019-02-14T18:40:09.781Z,26.53
2019-02-14T18:42:40.783Z,26.57
2019-02-14T18:45:11.629Z,26.67
2019-02-14T18:47:40.102Z,26.43
2019-02-14T18:50:12.747Z,25.93
2019-02-14T18:52:41.146Z,26.33
2019-02-14T18:55:12.522Z,25.77
2019-02-14T18:57:40.916Z,27.80
2019-02-14T19:00:19.710Z,33.80
2019-02-14T19:02:48.123Z,26.47
2019-02-14T19:05:16.518Z,27.57
2019-02-14T19:07:44.931Z,33.57
2019-02-14T19:10:17.093Z,28.67
2019-02-14T19:12:45.486Z,24.60
2019-02-14T19:15:14.255Z,30.57
2019-02-14T19:17:42.725Z,32.83
2019-02-14T19:20:12.185Z,34.13
2019-02-14T19:22:41.939Z,32.47
2019-02-14T19:25:10.570Z,31.97
2019-02-14T19:27:38.986Z,28.40
2019-02-14T19:30:09.722Z,26.17
2019-02-14T19:32:38.150Z,31.50
2019-02-14T19:35:10.519Z,29.70
2019-02-14T19:37:38.929Z,28.00
2019-02-14T19:40:08.594Z,26.40
2019-02-14T19:42:37.316Z,34.33
2019-02-14T19:45:11.119Z,32.67
2019-02-14T19:47:39.539Z,32.40
2019-02-14T19:50:12.811Z,34.93
2019-02-14T19:52:41.221Z,29.50
2019-02-14T19:55:09.982Z,30.93
2019-02-14T19:57:38.517Z,26.77
2019-02-14T20:00:10.003Z,26.90
2019-02-14T20:02:38.422Z,32.13
2019-02-14T20:05:08.458Z,34.40
2019-02-14T20:07:36.875Z,34.40
2019-02-14T20:10:08.936Z,31.30
2019-02-14T20:12:37.335Z,37.23
2019-02-14T20:15:14.450Z,30.00
2019-02-14T20:17:42.856Z,32.73
2019-02-14T20:20:11.273Z,34.57
2019-02-14T20:22:39.662Z,29.57
2019-02-14T20:25:11.157Z,24.87
2019-02-14T20:27:39.742Z,31.50
2019-02-14T20:30:09.279Z,32.67
2019-02-14T20:32:38.620Z,28.67
2019-02-14T20:35:08.566Z,29.87
2019-02-14T20:37:37.173Z,34.93
2019-02-14T20:40:10.887Z,29.50
2019-02-14T20:42:39.281Z,30.10
2019-02-14T20:45:10.921Z,28.43
2019-02-14T20:47:39.345Z,30.53
2019-02-14T20:50:10.694Z,26.43
2019-02-14T20:52:39.198Z,27.33
2019-02-14T20:55:13.398Z,28.27
2019-02-14T20:57:41.793Z,29.23
2019-02-14T21:00:29.674Z,26.67
2019-02-14T21:02:58.161Z,27.37
2019-02-14T21:05:26.643Z,26.43
2019-02-14T21:07:55.062Z,31.17
2019-02-14T21:10:23.458Z,29.87
2019-02-14T21:12:51.927Z,26.17
2019-02-14T21:15:20.584Z,26.40
2019-02-14T21:17:49.051Z,28.00
2019-02-14T21:20:17.599Z,30.00
2019-02-14T21:22:46.015Z,27.67
2019-02-14T21:25:14.767Z,30.13
2019-02-14T21:27:43.264Z,25.10
2019-02-14T21:30:14.576Z,33.37
2019-02-14T21:32:42.992Z,31.90
2019-02-14T21:35:11.485Z,32.87
2019-02-14T21:37:40.166Z,33.70
2019-02-14T21:40:11.911Z,30.43
2019-02-14T21:42:40.377Z,34.43
2019-02-14T21:45:13.260Z,29.73
2019-02-14T21:47:41.734Z,34.90
2019-02-14T21:50:14.631Z,31.80
2019-02-14T21:52:43.169Z,28.97
2019-02-14T21:55:15.716Z,31.73
2019-02-14T21:57:44.402Z,30.13
2019-02-14T22:00:18.047Z,29.67
2019-02-14T22:02:46.459Z,28.83
2019-02-14T22:05:14.961Z,32.57
2019-02-14T22:07:43.440Z,33.93
2019-02-14T22:10:13.354Z,30.83
2019-02-14T22:12:43.209Z,30.77
2019-02-14T22:15:21.273Z,35.50
2019-02-14T22:17:49.908Z,36.17
2019-02-14T22:20:18.380Z,31.10
2019-02-14T22:22:46.771Z,36.07
2019-02-14T22:25:15.194Z,30.70
2019-02-14T22:27:44.514Z,35.97
2019-02-14T22:30:17.321Z,28.90
2019-02-14T22:32:46.094Z,36.50
2019-02-14T22:35:14.652Z,34.47
2019-02-14T22:37:43.157Z,36.83
2019-02-14T22:40:12.698Z,35.67
2019-02-14T22:42:47.204Z,36.47
2019-02-14T22:45:13.536Z,29.63
2019-02-14T22:47:43.422Z,35.53
2019-02-14T22:50:12.374Z,28.87
2019-02-14T22:52:40.777Z,27.10
2019-02-14T22:55:13.296Z,29.87
2019-02-14T22:57:41.981Z,28.80
2019-02-14T23:00:23.633Z,32.77
2019-02-14T23:02:52.047Z,28.27
2019-02-14T23:05:20.447Z,34.03
2019-02-14T23:07:48.858Z,31.70
2019-02-14T23:10:17.274Z,30.37
2019-02-14T23:12:45.675Z,28.63
2019-02-14T23:15:14.163Z,27.50
2019-02-14T23:17:42.566Z,27.17
2019-02-14T23:20:10.983Z,33.33
2019-02-14T23:22:39.378Z,32.90
2019-02-14T23:25:07.790Z,30.33
2019-02-14T23:27:36.192Z,26.10
2019-02-14T23:30:10.170Z,29.70
2019-02-14T23:32:38.586Z,30.00
2019-02-14T23:35:07.570Z,29.40
2019-02-14T23:37:35.966Z,27.30
2019-02-14T23:40:05.418Z,22.50
2019-02-14T23:42:33.834Z,26.80
2019-02-14T23:45:02.240Z,25.60
2019-02-14T23:47:30.638Z,26.77
2019-02-14T23:49:59.058Z,24.87
2019-02-14T23:52:27.474Z,25.93
2019-02-14T23:54:55.886Z,27.33
2019-02-14T23:57:24.298Z,30.37
2019-02-14T23:59:52.734Z,30.97
